Time;durP1;ratioP1;P1;durP2;ratioP2;P2;SDS_P1;SDS_P2;PMS_P1;PMS_P2;Temp;Humidity;BMP_temperature;BMP_pressure;BME280_temperature;BME280_humidity;BME280_pressure;Samples;Min_cycle;Max_cycle;Signal;HPM_P1;HPM_P2
2023/06/29 00:01:34;;;;;;;3.87;3.47;;;15.30;65.70;;;14.89;62.17;98035.31;4989964;28;20920;-75
2023/06/29 00:04:02;;;;;;;4.40;2.90;;;15.20;66.10;;;14.91;61.81;98033.97;4975136;28;20447;-76
2023/06/29 00:06:32;;;;;;;3.53;3.23;;;15.20;66.60;;;14.66;63.13;98029.69;4985949;28;20521;-75
2023/06/29 00:08:59;;;;;;;3.97;3.60;;;15.10;67.10;;;14.61;63.43;98045.88;4991288;28;20463;-75
2023/06/29 00:11:27;;;;;;;4.03;3.63;;;15.00;67.90;;;14.69;63.10;98044.66;4972053;28;20641;-73
2023/06/29 00:13:55;;;;;;;3.37;3.10;;;15.00;68.50;;;14.08;63.44;97961.66;4991123;28;20473;-76
2023/06/29 00:16:22;;;;;;;4.43;4.03;;;14.90;68.80;;;14.46;64.17;98043.69;4989146;28;20570;-73
2023/06/29 00:18:54;;;;;;;4.20;3.80;;;14.90;69.50;;;14.49;63.82;98045.13;4975323;28;20475;-73
2023/06/29 00:21:23;;;;;;;3.83;3.53;;;14.80;69.80;;;14.53;63.63;98038.13;4986394;28;20461;-75
2023/06/29 00:23:53;;;;;;;4.03;3.50;;;14.80;70.30;;;14.45;64.31;98042.84;4958847;28;20914;-75
2023/06/29 00:26:20;;;;;;;3.90;3.50;;;14.80;70.80;;;14.24;65.01;98040.78;4992608;28;20554;-74
2023/06/29 00:28:47;;;;;;;4.90;3.57;;;14.70;71.20;;;14.17;64.88;98047.16;4995350;28;20522;-76
2023/06/29 00:31:15;;;;;;;4.70;4.30;;;14.60;71.60;;;14.29;64.80;98047.16;4993792;28;20520;-74
2023/06/29 00:33:42;;;;;;;5.80;4.10;;;14.60;71.80;;;14.30;64.54;98040.66;4976697;28;20521;-71
2023/06/29 00:36:09;;;;;;;4.47;3.57;;;14.60;71.90;;;14.21;64.90;98039.34;4971880;28;20466;-76
2023/06/29 00:38:37;;;;;;;4.70;3.60;;;14.60;72.10;;;14.10;64.99;98037.47;4990313;28;20483;-75
2023/06/29 00:41:05;;;;;;;5.00;3.63;;;14.50;72.40;;;13.82;65.93;98039.84;4982379;28;20463;-71
2023/06/29 00:43:32;;;;;;;3.83;3.47;;;14.40;73.00;;;13.88;65.91;98028.06;4991616;28;20463;-74
2023/06/29 00:46:00;;;;;;;4.63;4.17;;;14.40;73.40;;;13.92;65.93;98033.03;4973038;28;20493;-71
2023/06/29 00:48:27;;;;;;;5.07;4.30;;;14.40;74.00;;;14.06;65.81;98028.16;4970056;28;20470;-73
2023/06/29 00:50:55;;;;;;;4.60;4.07;;;14.40;74.20;;;13.96;65.62;98031.47;4991382;28;20453;-72
2023/06/29 00:53:22;;;;;;;4.13;3.60;;;14.30;74.30;;;13.86;66.28;98027.44;4972376;28;20458;-75
2023/06/29 00:55:51;;;;;;;4.13;3.80;;;14.30;74.50;;;13.83;66.07;98030.66;4989846;28;20519;-75
2023/06/29 00:58:18;;;;;;;4.30;4.00;;;14.20;74.60;;;13.77;66.22;98028.03;4989866;28;20471;-75
2023/06/29 01:00:45;;;;;;;7.40;3.77;;;14.20;74.90;;;13.78;66.31;98025.09;4989836;28;20926;-76
2023/06/29 01:03:13;;;;;;;3.53;3.20;;;14.10;75.10;;;13.83;66.23;98019.78;4989152;28;21053;-75
2023/06/29 01:05:41;;;;;;;4.37;3.80;;;14.20;75.10;;;13.77;66.15;98025.31;4974307;28;20469;-73
2023/06/29 01:08:16;;;;;;;4.50;4.20;;;14.20;75.30;;;13.72;66.74;98017.88;4988928;28;20459;-75
2023/06/29 01:10:47;;;;;;;4.10;3.80;;;14.10;75.30;;;13.60;67.12;98039.59;4988635;28;20475;-76
2023/06/29 01:13:18;;;;;;;4.37;4.03;;;14.00;75.80;;;13.56;67.33;98020.25;4968132;28;20446;-76
2023/06/29 01:15:48;;;;;;;4.47;4.10;;;13.90;76.00;;;13.60;66.96;98016.03;4986938;28;20454;-75
2023/06/29 01:18:16;;;;;;;4.30;3.80;;;14.00;76.30;;;13.52;67.59;98019.06;4983233;28;20482;-77
2023/06/29 01:20:44;;;;;;;4.70;4.30;;;13.90;76.60;;;13.45;67.58;98019.19;4991125;28;20514;-70
2023/06/29 01:23:16;;;;;;;5.00;4.57;;;13.90;76.80;;;13.51;67.68;98017.41;4989632;28;20942;-75
2023/06/29 01:25:45;;;;;;;4.13;3.73;;;13.90;77.10;;;13.51;67.41;98017.41;4990649;28;20525;-72
2023/06/29 01:28:13;;;;;;;4.67;4.20;;;13.90;77.00;;;13.41;68.18;98017.13;4985941;28;20547;-75
2023/06/29 01:30:48;;;;;;;5.03;4.10;;;13.80;77.30;;;13.43;68.08;98021.31;4971899;28;20563;-71
2023/06/29 01:33:17;;;;;;;3.77;3.37;;;13.80;77.60;;;13.39;68.13;98020.09;4981375;28;20973;-74
2023/06/29 01:35:45;;;;;;;6.67;3.80;;;13.80;77.60;;;13.21;68.55;98002.00;5000666;28;20458;-71
2023/06/29 01:38:18;;;;;;;5.90;4.30;;;13.70;77.70;;;13.23;68.80;98008.03;4982301;28;20474;-74
2023/06/29 01:40:49;;;;;;;4.07;3.67;;;13.60;78.00;;;13.27;68.96;98005.69;4985817;28;21119;-74
2023/06/29 01:43:18;;;;;;;5.63;4.73;;;13.60;78.50;;;13.22;68.97;98011.78;4982270;28;20463;-76
2023/06/29 01:45:47;;;;;;;4.23;3.80;;;13.60;78.60;;;13.09;69.28;97988.44;4968837;28;20462;-76
2023/06/29 01:48:15;;;;;;;6.93;3.87;;;13.60;78.80;;;13.23;69.49;98021.59;4983007;28;20459;-75
2023/06/29 01:50:42;;;;;;;4.70;4.10;;;13.60;79.20;;;13.14;69.86;98012.97;4982177;28;20470;-74
2023/06/29 01:53:10;;;;;;;4.40;4.00;;;13.60;79.50;;;13.13;70.14;98016.72;4980847;28;20860;-74
2023/06/29 01:55:37;;;;;;;4.00;3.60;;;13.50;79.60;;;13.08;69.62;98008.47;4963596;28;20458;-76
2023/06/29 01:58:06;;;;;;;6.00;3.70;;;13.50;79.60;;;13.03;69.86;98006.44;4962099;28;20512;-75
2023/06/29 02:00:34;;;;;;;4.27;3.97;;;13.50;79.50;;;12.94;70.30;98005.13;4979492;28;20479;-77
2023/06/29 02:03:01;;;;;;;4.50;4.10;;;13.40;79.60;;;12.96;70.34;98008.41;4963487;28;20466;-75
2023/06/29 02:05:28;;;;;;;3.80;3.50;;;13.40;80.00;;;12.99;70.39;98010.69;4988476;28;20960;-72
2023/06/29 02:07:55;;;;;;;8.13;4.53;;;13.40;80.10;;;12.97;70.28;98007.38;4981508;28;20462;-70
2023/06/29 02:10:23;;;;;;;4.43;4.07;;;13.40;80.10;;;12.92;70.55;97993.69;4987075;28;20481;-75
2023/06/29 02:12:50;;;;;;;3.80;3.50;;;13.40;80.50;;;12.98;70.51;98005.47;4968028;28;20534;-74
2023/06/29 02:15:18;;;;;;;4.33;3.60;;;13.30;80.60;;;12.86;71.02;98000.84;4979536;28;20934;-74
2023/06/29 02:17:46;;;;;;;3.90;3.60;;;13.20;81.00;;;12.84;71.08;98008.38;4979111;28;20458;-74
2023/06/29 02:20:13;;;;;;;6.60;3.57;;;13.20;80.90;;;12.67;71.31;98010.94;4983370;28;20481;-76
2023/06/29 02:22:40;;;;;;;3.13;2.93;;;13.10;81.00;;;12.69;71.87;98011.53;4978253;28;20603;-71
2023/06/29 02:25:12;;;;;;;3.97;3.67;;;13.10;81.50;;;12.46;71.59;97977.84;4986110;28;20447;-75
2023/06/29 02:27:39;;;;;;;3.90;3.60;;;13.10;81.30;;;12.61;71.08;97991.00;4975356;28;20457;-77
2023/06/29 02:30:08;;;;;;;3.93;3.20;;;13.10;81.50;;;12.78;71.21;98005.78;4982178;28;20502;-71
2023/06/29 02:32:37;;;;;;;3.97;3.57;;;13.20;81.50;;;12.74;71.43;98008.94;4966497;28;20480;-72
2023/06/29 02:35:05;;;;;;;3.87;3.57;;;13.10;81.50;;;12.74;71.69;98008.13;4983208;28;20509;-74
2023/06/29 02:37:33;;;;;;;3.63;3.33;;;13.10;81.80;;;12.61;71.50;97998.28;4966036;28;20541;-75
2023/06/29 02:40:00;;;;;;;3.53;3.23;;;13.00;81.50;;;12.60;71.87;98002.06;4981732;28;20477;-75
2023/06/29 02:42:27;;;;;;;3.37;3.03;;;13.00;81.70;;;12.49;71.53;97989.25;4982010;28;20472;-74
2023/06/29 02:44:55;;;;;;;3.93;3.63;;;13.00;81.50;;;12.42;71.90;97992.91;4986130;28;20486;-75
2023/06/29 02:47:22;;;;;;;3.60;3.30;;;12.90;81.70;;;12.33;72.33;97992.38;4983351;28;21347;-74
2023/06/29 02:49:50;;;;;;;3.67;3.30;;;12.80;82.00;;;12.42;71.76;97990.19;4988007;28;20456;-72
2023/06/29 02:52:18;;;;;;;4.73;3.70;;;12.80;81.80;;;12.43;72.04;97991.84;4983060;28;20458;-76
2023/06/29 02:54:45;;;;;;;5.20;3.53;;;12.80;82.00;;;12.39;71.56;97998.78;4986762;28;20454;-74
2023/06/29 02:57:12;;;;;;;3.60;3.30;;;12.80;82.00;;;12.37;71.92;97992.78;4986162;28;20463;-76
2023/06/29 02:59:40;;;;;;;5.23;3.60;;;12.80;82.10;;;12.24;72.46;97987.50;4986953;28;20887;-71
2023/06/29 03:02:07;;;;;;;3.87;3.53;;;12.80;82.00;;;12.37;71.82;97992.78;4987633;28;20449;-74
2023/06/29 03:04:34;;;;;;;3.50;3.20;;;12.70;82.10;;;12.24;72.14;97992.94;4992780;28;20483;-75
2023/06/29 03:07:03;;;;;;;5.80;3.73;;;12.70;82.00;;;11.87;72.58;97945.81;4992072;28;20473;-75
2023/06/29 03:09:30;;;;;;;3.10;2.90;;;12.80;82.20;;;12.07;72.94;97982.72;4994496;28;20453;-75
2023/06/29 03:11:58;;;;;;;4.13;3.23;;;12.70;82.40;;;12.19;73.20;97990.91;4995509;28;20453;-72
2023/06/29 03:14:25;;;;;;;4.23;3.83;;;12.70;82.40;;;11.62;73.27;97903.41;4973075;28;20457;-74
2023/06/29 03:16:52;;;;;;;3.83;3.53;;;12.70;82.40;;;12.33;72.56;97988.84;4989740;28;20543;-72
2023/06/29 03:19:19;;;;;;;5.60;3.43;;;12.80;82.30;;;12.43;72.04;97986.44;4995615;28;20473;-76
2023/06/29 03:21:46;;;;;;;4.43;4.03;;;12.80;82.00;;;12.32;72.36;97974.47;5002897;28;20448;-71
2023/06/29 03:24:15;;;;;;;4.03;3.27;;;12.90;82.40;;;12.40;72.27;97986.03;5007636;28;20475;-73
2023/06/29 03:26:42;;;;;;;4.03;3.00;;;12.80;82.40;;;12.46;72.17;97979.72;4999160;28;20458;-73
2023/06/29 03:29:09;;;;;;;3.60;3.30;;;12.90;82.20;;;12.62;71.76;97980.97;4988135;28;20774;-73
2023/06/29 03:31:37;;;;;;;3.90;3.60;;;13.00;82.00;;;12.70;71.50;97975.22;4989858;28;20444;-76
2023/06/29 03:34:04;;;;;;;4.10;3.10;;;13.00;81.90;;;13.07;69.62;97981.56;4985815;28;20484;-70
2023/06/29 03:36:32;;;;;;;5.23;3.50;;;13.30;81.10;;;12.92;69.86;97971.16;4983537;28;20462;-75
2023/06/29 03:38:59;;;;;;;3.47;3.27;;;13.40;80.60;;;12.86;69.72;97973.72;4994825;28;20577;-75
2023/06/29 03:41:28;;;;;;;4.30;3.77;;;13.40;80.50;;;12.70;70.49;97975.22;4987655;28;20494;-74
2023/06/29 03:43:56;;;;;;;3.57;3.27;;;13.30;80.10;;;12.88;69.93;97970.81;4988842;28;20529;-75
2023/06/29 03:46:24;;;;;;;3.40;3.10;;;13.30;80.20;;;12.77;70.01;97958.88;4987677;28;21302;-74
2023/06/29 03:48:52;;;;;;;4.23;3.50;;;13.30;80.20;;;12.54;70.05;97929.81;4992020;28;20452;-74
2023/06/29 03:51:19;;;;;;;4.30;3.80;;;13.30;80.20;;;12.78;70.16;97973.25;4979444;28;20458;-74
2023/06/29 03:53:46;;;;;;;3.23;2.93;;;13.40;80.10;;;12.92;69.74;97963.84;4971949;28;20442;-75
2023/06/29 03:56:13;;;;;;;3.60;3.30;;;13.50;80.00;;;13.02;69.29;97968.69;4982360;28;20463;-75
2023/06/29 03:58:42;;;;;;;3.50;3.03;;;13.50;79.60;;;13.23;68.76;97964.63;4974132;28;20472;-75
2023/06/29 04:01:09;;;;;;;4.20;3.70;;;13.60;79.60;;;13.00;69.16;97982.50;4989814;28;20503;-76
2023/06/29 04:03:36;;;;;;;3.80;3.43;;;13.60;79.40;;;13.22;68.45;97965.66;4988569;28;20936;-75
2023/06/29 04:06:04;;;;;;;3.60;3.30;;;13.60;79.30;;;13.02;68.93;97961.41;4993004;28;20467;-72
2023/06/29 04:08:32;;;;;;;3.67;3.37;;;13.60;79.20;;;13.71;67.21;97972.78;4989634;28;20548;-76
2023/06/29 04:10:59;;;;;;;3.40;3.20;;;14.00;78.90;;;14.61;64.00;97964.31;4973781;28;20454;-74
2023/06/29 04:13:27;;;;;;;3.57;3.27;;;14.90;77.10;;;15.42;60.90;97959.75;4984269;28;20470;-74
2023/06/29 04:15:55;;;;;;;4.07;3.43;;;15.90;74.70;;;16.03;59.02;97961.72;4993180;28;20458;-76
2023/06/29 04:18:22;;;;;;;3.40;3.10;;;16.70;71.80;;;16.37;57.71;97960.75;4989277;28;20509;-75
2023/06/29 04:20:50;;;;;;;5.43;3.67;;;17.10;70.10;;;17.20;55.24;97946.06;4999865;28;20476;-76
2023/06/29 04:23:17;;;;;;;3.93;3.63;;;17.90;68.00;;;17.03;55.50;97967.19;5003968;28;20463;-76
2023/06/29 04:25:44;;;;;;;3.80;3.50;;;18.20;66.30;;;17.02;54.98;97955.47;4988321;28;20452;-71
2023/06/29 04:28:12;;;;;;;4.03;3.67;;;18.20;65.10;;;17.61;53.76;97961.09;4978627;28;20452;-73
2023/06/29 04:30:41;;;;;;;4.10;3.37;;;18.40;64.50;;;17.68;52.88;97962.53;4980063;28;20488;-72
2023/06/29 04:33:10;;;;;;;3.30;3.10;;;18.70;63.10;;;17.87;52.23;97961.28;4986052;28;20460;-76
2023/06/29 04:35:40;;;;;;;4.10;3.30;;;18.90;62.00;;;17.88;52.34;97954.72;4985971;28;20467;-73
2023/06/29 04:38:09;;;;;;;3.37;2.90;;;18.80;61.70;;;17.87;52.29;97950.34;4987203;28;20460;-72
2023/06/29 04:40:36;;;;;;;3.10;2.90;;;18.90;61.50;;;17.28;53.50;97959.25;4987194;28;20571;-75
2023/06/29 04:43:03;;;;;;;3.07;2.77;;;18.60;61.10;;;17.27;53.53;97946.69;4986081;28;20454;-74
2023/06/29 04:45:31;;;;;;;3.40;3.10;;;18.50;61.30;;;17.71;52.61;97955.72;4990519;28;20452;-74
2023/06/29 04:48:00;;;;;;;3.07;2.87;;;18.90;60.70;;;18.44;50.82;97953.38;4987095;28;20456;-75
2023/06/29 04:50:35;;;;;;;3.23;2.60;;;19.30;60.10;;;19.43;48.38;97935.16;4999052;28;20455;-78
2023/06/29 04:53:08;;;;;;;3.40;2.93;;;19.80;59.20;;;19.07;48.54;97950.50;4993240;28;20455;-78
2023/06/29 04:55:36;;;;;;;3.47;3.17;;;20.20;58.10;;;19.15;48.78;97943.66;4996460;28;20499;-80
2023/06/29 04:58:04;;;;;;;3.20;2.90;;;20.30;57.80;;;18.88;49.52;97949.34;4991556;28;20508;-75
2023/06/29 05:00:32;;;;;;;3.07;2.80;;;20.00;57.80;;;19.77;47.22;97949.06;4985007;28;20475;-79
2023/06/29 05:03:00;;;;;;;3.57;3.07;;;20.50;57.20;;;19.97;46.20;97950.16;4978382;28;20451;-80
2023/06/29 05:05:28;;;;;;;3.70;2.90;;;20.80;56.50;;;19.50;48.01;97954.88;4981077;28;20456;-71
2023/06/29 05:07:56;;;;;;;2.90;2.70;;;20.50;56.30;;;20.38;46.32;97951.91;4981427;28;20571;-81
2023/06/29 05:10:24;;;;;;;2.60;2.40;;;21.10;56.30;;;20.55;45.54;97946.06;4981847;28;21714;-81
2023/06/29 05:12:51;;;;;;;4.10;3.70;;;21.30;55.50;;;20.25;45.55;97945.13;4981686;28;20990;-81
2023/06/29 05:15:18;;;;;;;2.90;2.70;;;21.30;54.70;;;21.12;44.11;97948.47;4980977;28;20456;-75
2023/06/29 05:17:46;;;;;;;2.83;2.57;;;21.50;55.00;;;21.36;42.49;97947.72;4983331;28;20446;-74
2023/06/29 05:20:17;;;;;;;3.90;3.37;;;21.90;53.70;;;21.44;42.56;97954.53;4990592;28;20516;-72
2023/06/29 05:22:46;;;;;;;3.57;3.27;;;22.10;53.50;;;20.76;43.66;97946.75;4983526;28;20847;-75
2023/06/29 05:25:14;;;;;;;3.47;3.17;;;22.10;52.90;;;20.83;43.80;97943.72;4981143;28;20479;-74
2023/06/29 05:27:41;;;;;;;3.53;3.23;;;21.80;52.80;;;20.16;45.33;97944.06;4977572;28;20475;-75
2023/06/29 05:30:10;;;;;;;4.23;3.30;;;21.60;53.00;;;20.58;43.86;97879.66;4981648;28;20456;-74
2023/06/29 05:32:37;;;;;;;3.80;3.07;;;21.90;53.00;;;21.40;43.06;97943.28;4972929;28;20951;-80
2023/06/29 05:35:06;;;;;;;3.10;2.80;;;22.30;52.50;;;21.22;43.01;97937.41;4979173;28;20523;-77
2023/06/29 05:37:33;;;;;;;4.83;3.23;;;22.30;52.20;;;21.54;42.55;97951.69;4978733;28;21010;-80
2023/06/29 05:40:02;;;;;;;5.37;3.67;;;22.40;52.00;;;23.11;40.38;97938.47;4962929;28;20669;-81
2023/06/29 05:42:29;;;;;;;3.87;2.97;;;23.40;52.40;;;23.50;38.51;97928.22;4960425;28;20458;-81
2023/06/29 05:44:56;;;;;;;3.67;3.37;;;24.00;50.90;;;23.68;38.33;97932.03;4991736;28;20521;-80
2023/06/29 05:47:24;;;;;;;6.23;3.30;;;23.90;50.70;;;22.50;40.06;97947.38;4985845;28;20457;-76
2023/06/29 05:49:52;;;;;;;3.40;2.87;;;23.70;50.60;;;22.06;40.93;97942.94;4993594;28;20495;-77
2023/06/29 05:52:19;;;;;;;3.80;3.50;;;23.40;50.20;;;21.35;42.83;97941.41;5003911;28;20457;-78
2023/06/29 05:54:47;;;;;;;3.43;3.13;;;22.70;50.70;;;22.03;41.55;97936.06;4986813;28;20496;-78
2023/06/29 05:57:16;;;;;;;3.67;3.27;;;22.90;50.80;;;22.86;40.23;97901.97;4986844;28;20453;-79
2023/06/29 05:59:43;;;;;;;3.50;3.20;;;23.70;50.70;;;23.03;40.01;97930.91;4985539;28;20872;-79
2023/06/29 06:02:11;;;;;;;4.83;4.43;;;23.80;50.30;;;22.28;40.76;97934.13;4993399;28;20469;-79
2023/06/29 06:04:38;;;;;;;7.60;3.50;;;23.60;49.80;;;22.77;39.75;97939.56;4987841;28;20593;-84
2023/06/29 06:07:06;;;;;;;4.50;3.07;;;23.70;49.80;;;23.98;37.37;97940.84;4994758;28;20463;-79
2023/06/29 06:09:33;;;;;;;4.80;3.33;;;24.30;49.40;;;24.19;36.93;97899.09;5000959;28;20466;-80
2023/06/29 06:12:00;;;;;;;4.07;3.30;;;24.90;49.10;;;24.83;36.23;97936.91;4988643;28;20451;-83
2023/06/29 06:14:29;;;;;;;3.90;3.23;;;25.10;48.70;;;24.58;36.15;97932.75;4989185;28;20460;-83
2023/06/29 06:16:56;;;;;;;4.83;3.77;;;25.20;48.10;;;24.97;34.61;97925.00;4984398;28;20468;-81
2023/06/29 06:19:23;;;;;;;2.97;2.63;;;25.60;47.50;;;24.95;34.97;97916.22;4975531;28;20486;-83
2023/06/29 06:21:50;;;;;;;3.73;3.33;;;25.90;47.30;;;24.44;35.69;97932.78;4975442;28;20466;-83
2023/06/29 06:24:17;;;;;;;3.60;3.27;;;25.80;47.00;;;24.49;34.99;97935.41;4985428;28;20462;-84
2023/06/29 06:26:45;;;;;;;2.60;2.40;;;25.70;46.60;;;24.04;35.63;97931.41;4982931;28;20777;-83
2023/06/29 06:29:12;;;;;;;3.70;3.10;;;25.40;46.40;;;24.58;35.26;97925.28;4979770;28;20456;-74
2023/06/29 06:31:41;;;;;;;4.07;3.27;;;25.30;46.70;;;24.11;36.04;97930.16;4982473;28;20190;-77
2023/06/29 06:34:08;;;;;;;3.10;2.70;;;25.00;46.80;;;23.32;37.69;97927.16;4959837;28;20459;-75
2023/06/29 06:36:35;;;;;;;3.13;2.83;;;24.40;47.30;;;22.15;39.51;97924.66;4972321;28;20455;-76
2023/06/29 06:39:03;;;;;;;4.50;3.47;;;23.20;47.80;;;21.63;41.32;97927.94;4981129;28;20468;-75
2023/06/29 06:41:31;;;;;;;3.33;2.80;;;22.40;48.70;;;21.11;42.78;97929.53;4977716;28;20958;-77
2023/06/29 06:43:58;;;;;;;4.07;3.17;;;21.70;49.50;;;21.15;42.71;97920.41;4979516;28;20455;-77
2023/06/29 06:46:25;;;;;;;4.80;2.50;;;21.60;49.80;;;20.82;43.24;97913.81;4979534;28;21018;-76
2023/06/29 06:48:54;;;;;;;3.33;3.03;;;21.30;50.00;;;20.60;43.82;97921.34;4983532;28;24297;-76
2023/06/29 06:51:21;;;;;;;4.70;2.97;;;20.90;50.40;;;20.80;44.25;97927.78;4977907;28;20472;-77
2023/06/29 06:53:49;;;;;;;3.00;2.70;;;21.10;50.90;;;20.49;44.68;97927.97;4972847;28;20458;-75
2023/06/29 06:56:16;;;;;;;4.23;3.00;;;20.90;50.90;;;20.86;44.16;97910.22;4986414;28;20801;-77
2023/06/29 06:58:43;;;;;;;3.57;3.30;;;21.10;51.60;;;21.17;43.94;97926.47;5000801;28;20795;-77
2023/06/29 07:01:13;;;;;;;2.90;2.70;;;21.30;51.50;;;21.03;43.87;97929.03;5002333;28;20464;-74
2023/06/29 07:03:40;;;;;;;6.50;3.70;;;21.30;51.20;;;21.14;43.93;97916.03;4999996;28;20476;-75
2023/06/29 07:06:09;;;;;;;3.87;3.10;;;21.40;51.30;;;21.22;43.50;97920.91;4977433;28;20487;-75
2023/06/29 07:08:36;;;;;;;3.60;3.00;;;21.50;51.30;;;20.83;44.50;97919.00;4979033;28;20848;-77
2023/06/29 07:11:03;;;;;;;4.27;3.10;;;21.30;51.30;;;21.06;44.33;97927.66;4980513;28;20531;-74
2023/06/29 07:13:31;;;;;;;6.40;3.30;;;21.30;51.70;;;21.43;43.54;97925.41;4964515;28;21068;-75
2023/06/29 07:15:58;;;;;;;3.17;2.87;;;21.50;51.60;;;21.38;43.12;97923.53;4980969;28;20462;-76
2023/06/29 07:18:26;;;;;;;3.00;2.80;;;21.60;51.30;;;21.58;42.95;97921.69;4980299;28;20445;-75
2023/06/29 07:20:54;;;;;;;6.67;3.43;;;21.70;51.40;;;21.56;43.13;97921.16;4988828;28;20498;-76
2023/06/29 07:23:24;;;;;;;5.80;3.20;;;21.80;51.30;;;21.87;42.44;97918.09;4982794;28;20544;-77
2023/06/29 07:25:51;;;;;;;3.00;2.70;;;22.00;51.20;;;21.85;42.81;97914.84;4966090;28;21012;-76
2023/06/29 07:28:18;;;;;;;2.80;2.60;;;22.10;51.20;;;21.88;42.51;97914.25;4967323;28;20462;-77
2023/06/29 07:30:45;;;;;;;2.60;2.40;;;22.10;51.10;;;22.02;42.95;97908.88;4983278;28;20710;-76
2023/06/29 07:33:13;;;;;;;4.40;2.97;;;22.20;51.60;;;22.18;42.21;97870.97;4976951;28;20543;-74
2023/06/29 07:35:40;;;;;;;3.00;2.80;;;22.50;51.60;;;22.41;41.02;97901.50;4983243;28;20957;-75
2023/06/29 07:38:07;;;;;;;3.70;2.57;;;22.60;50.70;;;22.01;41.92;97907.25;4985568;28;20476;-74
2023/06/29 07:40:37;;;;;;;2.80;2.57;;;22.40;50.50;;;22.33;41.30;97895.53;4983976;28;21064;-75
2023/06/29 07:43:06;;;;;;;3.67;3.13;;;22.50;50.70;;;22.86;40.84;97893.72;4981119;28;20459;-75
2023/06/29 07:45:34;;;;;;;4.90;2.67;;;22.80;50.80;;;23.04;40.22;97896.72;4975023;28;20462;-76
2023/06/29 07:48:01;;;;;;;4.00;2.90;;;23.10;50.70;;;22.91;40.06;97893.63;4980176;28;20479;-74
2023/06/29 07:50:29;;;;;;;3.00;2.70;;;23.10;50.20;;;23.13;40.31;97881.16;4982568;28;20476;-75
2023/06/29 07:52:57;;;;;;;2.77;2.57;;;23.20;50.50;;;23.39;38.58;97888.19;4988600;28;20203;-75
2023/06/29 07:55:24;;;;;;;3.33;2.50;;;23.50;49.30;;;23.63;37.69;97888.03;4986801;28;20487;-74
2023/06/29 07:57:53;;;;;;;2.47;2.27;;;23.70;49.10;;;23.62;37.76;97880.88;4982898;28;20458;-73
2023/06/29 08:00:21;;;;;;;2.30;2.10;;;23.80;48.80;;;23.70;37.45;97882.91;4963438;28;20484;-75
2023/06/29 08:02:50;;;;;;;2.40;2.20;;;23.80;48.60;;;23.96;37.08;97885.16;4983833;28;20467;-74
2023/06/29 08:05:17;;;;;;;2.90;2.50;;;24.00;48.90;;;24.13;36.59;97875.47;4986941;28;20445;-75
2023/06/29 08:07:45;;;;;;;2.57;2.37;;;24.10;48.20;;;24.04;36.61;97889.16;4987807;28;20522;-75
2023/06/29 08:10:13;;;;;;;2.80;2.53;;;24.20;48.00;;;24.12;36.68;97876.59;4982139;28;20447;-75
2023/06/29 08:12:41;;;;;;;2.80;2.37;;;24.20;48.10;;;24.09;37.03;97875.25;4990085;28;20537;-73
2023/06/29 08:15:11;;;;;;;3.03;2.40;;;24.10;48.20;;;24.01;36.42;97875.97;4963955;28;20455;-76
2023/06/29 08:17:39;;;;;;;2.20;2.00;;;24.20;47.80;;;24.15;36.40;97867.69;4979280;28;20459;-75
2023/06/29 08:20:12;;;;;;;3.10;2.30;;;24.20;47.80;;;24.54;36.47;97851.66;4978421;28;20475;-75
2023/06/29 08:22:42;;;;;;;2.10;1.90;;;24.40;48.20;;;24.80;35.41;97864.91;4977457;28;20463;-75
2023/06/29 08:25:11;;;;;;;2.33;2.13;;;24.70;47.70;;;24.55;35.38;97856.88;4978703;28;20436;-75
2023/06/29 08:27:39;;;;;;;2.70;2.50;;;24.70;47.20;;;24.54;35.59;97854.41;4965941;28;20484;-76
2023/06/29 08:30:22;;;;;;;3.27;2.37;;;24.70;47.40;;;24.72;35.38;97858.16;4980850;28;21000;-76
2023/06/29 08:33:49;;;;;;;4.10;2.47;;;24.80;47.50;;;23.49;35.00;97682.06;4982660;28;20484;-78
2023/06/29 08:36:30;;;;;;;2.60;2.17;;;24.80;47.20;;;24.19;35.33;97761.91;4977194;28;20803;-78
2023/06/29 08:38:57;;;;;;;2.27;2.10;;;24.90;47.30;;;24.79;35.25;97853.00;4983676;28;20558;-75
2023/06/29 08:41:25;;;;;;;2.40;2.23;;;24.80;47.00;;;24.75;35.35;97849.22;4984056;28;21156;-74
2023/06/29 08:43:52;;;;;;;2.70;2.50;;;24.90;47.20;;;24.74;34.87;97851.19;4982597;28;20868;-75
2023/06/29 08:46:42;;;;;;;2.30;2.07;;;24.80;47.10;;;24.78;35.18;97847.81;4985214;28;20543;-77
2023/06/29 08:49:10;;;;;;;2.63;2.40;;;24.80;47.30;;;24.98;35.38;97852.84;4976934;28;20866;-74
2023/06/29 08:51:40;;;;;;;4.30;2.37;;;25.00;47.30;;;24.62;35.28;97848.97;4982136;28;20455;-76
2023/06/29 08:54:09;;;;;;;2.30;2.00;;;24.90;46.80;;;24.78;34.99;97845.88;4985509;28;20471;-76
2023/06/29 08:56:37;;;;;;;2.63;2.43;;;24.90;46.80;;;24.84;34.25;97847.38;4981304;28;20475;-76
2023/06/29 08:59:05;;;;;;;2.70;2.43;;;24.90;46.50;;;25.29;34.19;97845.72;4983087;28;20460;-74
2023/06/29 09:01:34;;;;;;;2.47;2.20;;;25.20;46.50;;;25.37;34.08;97846.88;4978092;28;20791;-75
2023/06/29 09:04:03;;;;;;;2.20;2.00;;;25.40;46.60;;;25.36;33.07;97839.72;4984844;28;20463;-73
2023/06/29 09:06:32;;;;;;;2.30;2.10;;;25.50;46.00;;;25.21;33.41;97844.53;4985220;28;20459;-74
2023/06/29 09:09:00;;;;;;;2.63;2.20;;;25.20;45.90;;;25.22;33.84;97839.81;4968386;28;20466;-75
2023/06/29 09:11:29;;;;;;;2.40;2.13;;;25.30;45.90;;;25.43;33.54;97835.38;4981339;28;20495;-75
2023/06/29 09:13:57;;;;;;;3.47;2.63;;;25.40;45.90;;;25.04;33.93;97834.19;4980268;28;20475;-75
2023/06/29 09:16:29;;;;;;;2.77;2.57;;;25.30;45.80;;;25.03;33.82;97832.56;4982858;28;20947;-74
2023/06/29 09:18:59;;;;;;;2.60;2.40;;;25.20;45.80;;;24.84;34.00;97777.50;4983822;28;20774;-75
2023/06/29 09:21:28;;;;;;;2.17;2.07;;;25.20;46.10;;;25.21;33.95;97827.13;4977254;28;20488;-74
2023/06/29 09:23:57;;;;;;;2.60;2.40;;;25.30;46.00;;;25.42;33.48;97833.75;4975433;28;20463;-73
2023/06/29 09:26:27;;;;;;;2.77;2.50;;;25.40;46.60;;;25.50;33.35;97826.66;4984272;28;20583;-75
2023/06/29 09:29:00;;;;;;;1.90;1.80;;;25.50;46.00;;;25.51;33.57;97819.16;4983392;28;20529;-73
2023/06/29 09:31:32;;;;;;;2.37;2.27;;;25.50;45.80;;;25.76;33.32;97825.09;4965940;28;20456;-75
2023/06/29 09:34:18;;;;;;;2.10;1.90;;;25.70;45.70;;;25.64;33.13;97815.47;4959333;28;20477;-74
2023/06/29 09:36:46;;;;;;;2.20;2.00;;;25.70;45.60;;;25.86;32.85;97816.53;4977557;28;20551;-75
2023/06/29 09:39:13;;;;;;;3.27;1.83;;;25.80;45.60;;;25.64;32.76;97818.22;4980780;28;20463;-74
2023/06/29 09:41:51;;;;;;;2.30;2.13;;;25.70;45.40;;;25.79;32.74;97814.22;4981658;28;21043;-74
2023/06/29 09:44:21;;;;;;;2.40;2.20;;;25.80;45.50;;;25.77;32.54;97815.69;4977271;28;20466;-74
2023/06/29 09:46:48;;;;;;;2.50;2.30;;;25.90;45.10;;;25.40;32.94;97813.91;4979006;28;20992;-76
2023/06/29 09:49:18;;;;;;;4.67;3.20;;;25.60;45.10;;;25.68;33.15;97807.34;4962527;28;20809;-75
2023/06/29 09:51:48;;;;;;;2.83;2.53;;;25.70;45.60;;;25.77;33.21;97812.91;4979689;28;20591;-74
2023/06/29 09:54:16;;;;;;;4.50;2.70;;;25.70;45.60;;;26.03;32.52;97808.25;4985761;28;20554;-74
2023/06/29 09:56:45;;;;;;;2.03;1.93;;;25.90;45.30;;;26.16;32.51;97798.16;4979660;28;21135;-75
2023/06/29 09:59:13;;;;;;;2.00;1.90;;;26.10;45.30;;;26.18;32.63;97792.34;4963853;28;20470;-74
2023/06/29 10:01:42;;;;;;;2.40;2.17;;;26.20;45.30;;;26.13;32.28;97775.84;4975107;28;21048;-75
2023/06/29 10:04:10;;;;;;;2.73;2.30;;;26.20;44.80;;;26.28;31.72;97786.47;4981304;28;20452;-76
2023/06/29 10:06:45;;;;;;;2.60;2.40;;;26.30;44.70;;;26.36;31.53;97789.59;4990276;28;20447;-74
2023/06/29 10:09:19;;;;;;;1.80;1.70;;;26.40;44.50;;;26.55;31.13;97781.75;4991178;28;20454;-76
2023/06/29 10:11:51;;;;;;;2.80;2.30;;;26.50;44.30;;;26.42;31.32;97779.97;4977143;28;20460;-74
2023/06/29 10:14:22;;;;;;;2.00;1.90;;;26.30;44.20;;;26.37;32.02;97782.91;4979121;28;20467;-74
2023/06/29 10:16:53;;;;;;;2.07;1.97;;;26.30;44.80;;;26.15;31.78;97781.88;4978168;28;20550;-74
2023/06/29 10:19:22;;;;;;;2.27;2.07;;;26.40;44.40;;;26.50;31.10;97781.09;4976973;28;21435;-75
2023/06/29 10:21:56;;;;;;;2.37;2.17;;;26.40;44.30;;;26.49;30.08;97774.75;4978460;28;21011;-74
2023/06/29 10:24:30;;;;;;;2.23;2.13;;;26.50;43.70;;;26.75;30.29;97784.97;4985416;28;20495;-75
2023/06/29 10:27:00;;;;;;;2.33;2.13;;;26.60;43.80;;;26.74;30.64;97780.56;4979827;28;20539;-75